Time;durP1;ratioP1;P1;durP2;ratioP2;P2;SDS_P1;SDS_P2;PMS_P1;PMS_P2;Temp;Humidity;BMP_temperature;BMP_pressure;BME280_temperature;BME280_humidity;BME280_pressure;Samples;Min_cycle;Max_cycle;Signal;HPM_P1;HPM_P2
2022/03/17 00:01:47;;;;;;;6.97;6.28;;;0.60;58.60;;;;;;5096679;28;20055;-60
2022/03/17 00:04:13;;;;;;;7.18;6.47;;;0.60;58.30;;;;;;5099124;28;20060;-60
2022/03/17 00:06:38;;;;;;;7.40;5.90;;;0.60;58.20;;;;;;5097694;28;20080;-60
2022/03/17 00:09:06;;;;;;;6.85;6.18;;;0.60;58.20;;;;;;5094259;28;20091;-60
2022/03/17 00:11:32;;;;;;;8.93;6.80;;;0.60;58.20;;;;;;5094663;28;20032;-60
2022/03/17 00:13:58;;;;;;;8.68;6.80;;;0.60;57.90;;;;;;5081868;28;20103;-60
2022/03/17 00:16:24;;;;;;;8.75;7.05;;;0.50;57.90;;;;;;5095572;28;20115;-60
2022/03/17 00:18:50;;;;;;;8.63;6.75;;;0.50;57.80;;;;;;5092072;28;20064;-60
2022/03/17 00:21:16;;;;;;;7.03;6.32;;;0.50;57.50;;;;;;5092923;28;20084;-60
2022/03/17 00:23:41;;;;;;;7.38;6.55;;;0.50;57.30;;;;;;5101687;28;20196;-60
2022/03/17 00:26:07;;;;;;;7.25;6.38;;;0.50;56.80;;;;;;5108653;28;20015;-59
2022/03/17 00:28:32;;;;;;;6.88;5.68;;;0.50;56.40;;;;;;5080302;28;20024;-60
2022/03/17 00:30:59;;;;;;;5.95;5.32;;;0.40;56.20;;;;;;5084850;28;20481;-60
2022/03/17 00:33:25;;;;;;;5.97;5.38;;;0.40;55.90;;;;;;5092798;28;20082;-60
2022/03/17 00:35:50;;;;;;;8.48;5.90;;;0.40;55.80;;;;;;5091004;28;20032;-60
2022/03/17 00:38:18;;;;;;;6.97;5.63;;;0.30;56.20;;;;;;5092273;28;20115;-60
2022/03/17 00:40:46;;;;;;;6.82;5.80;;;0.30;56.40;;;;;;5107291;28;20046;-60
2022/03/17 00:43:13;;;;;;;6.70;5.72;;;0.30;56.20;;;;;;5102443;28;20067;-60
2022/03/17 00:45:40;;;;;;;5.60;5.05;;;0.30;56.10;;;;;;5096645;28;20047;-60
2022/03/17 00:48:06;;;;;;;6.32;5.38;;;0.30;55.90;;;;;;5090665;28;20078;-60
2022/03/17 00:50:33;;;;;;;7.15;5.53;;;0.30;55.80;;;;;;5115582;27;20023;-60
2022/03/17 00:53:00;;;;;;;6.57;5.15;;;0.30;55.80;;;;;;5100448;28;20588;-60
2022/03/17 00:55:26;;;;;;;7.25;6.10;;;0.20;55.60;;;;;;5096216;28;20030;-60
2022/03/17 00:57:52;;;;;;;6.97;6.28;;;0.20;55.50;;;;;;5098874;28;20081;-60
2022/03/17 01:00:20;;;;;;;8.18;5.80;;;0.20;55.20;;;;;;5102335;28;20023;-60
2022/03/17 01:02:49;;;;;;;6.43;5.57;;;0.20;55.10;;;;;;5098267;28;20028;-60
2022/03/17 01:05:15;;;;;;;6.00;5.25;;;0.20;55.00;;;;;;5090786;28;20023;-60
2022/03/17 01:07:42;;;;;;;5.93;5.25;;;0.20;54.70;;;;;;5107181;28;20024;-60
2022/03/17 01:10:09;;;;;;;7.50;5.35;;;0.10;54.80;;;;;;5114995;28;20103;-62
2022/03/17 01:12:35;;;;;;;7.18;6.47;;;0.10;54.70;;;;;;5115072;28;20023;-62
2022/03/17 01:15:02;;;;;;;6.60;5.53;;;0.10;55.40;;;;;;5102089;28;20040;-60
2022/03/17 01:17:28;;;;;;;7.45;5.70;;;0.10;55.40;;;;;;5106805;28;20060;-60
2022/03/17 01:19:54;;;;;;;7.05;5.95;;;0.10;55.30;;;;;;5102516;28;20084;-60
2022/03/17 01:22:21;;;;;;;6.43;5.50;;;0.10;55.00;;;;;;5100387;28;20028;-60
2022/03/17 01:24:49;;;;;;;9.65;7.10;;;0.10;54.90;;;;;;5100609;28;20041;-60
2022/03/17 01:27:15;;;;;;;8.25;6.45;;;0.10;55.80;;;;;;5082806;28;20024;-60
2022/03/17 01:29:43;;;;;;;7.07;6.35;;;0.00;56.30;;;;;;5098508;28;20085;-60
2022/03/17 01:32:09;;;;;;;7.97;7.13;;;0.00;56.70;;;;;;5108937;28;20119;-60
2022/03/17 01:34:34;;;;;;;8.40;6.97;;;0.00;56.60;;;;;;5086086;28;20052;-60
2022/03/17 01:37:00;;;;;;;8.77;7.38;;;0.00;56.90;;;;;;5090442;28;20538;-60
2022/03/17 01:39:26;;;;;;;8.32;6.60;;;0.00;57.10;;;;;;5083089;28;20022;-60
2022/03/17 01:41:55;;;;;;;9.13;6.47;;;0.00;57.10;;;;;;5101573;28;20055;-60
2022/03/17 01:44:21;;;;;;;9.00;7.03;;;0.00;57.10;;;;;;5094740;28;20032;-60
2022/03/17 01:49:31;;;;;;;8.68;6.35;;;-0.10;56.80;;;;;;5091191;28;20036;-62
2022/03/17 01:51:57;;;;;;;7.28;6.53;;;-0.10;56.70;;;;;;5092497;28;20017;-60
2022/03/17 01:54:24;;;;;;;6.95;6.25;;;-0.10;56.50;;;;;;5090269;28;20021;-60
2022/03/17 01:56:51;;;;;;;7.03;6.32;;;-0.10;56.80;;;;;;5089117;28;20111;-60
2022/03/17 01:59:17;;;;;;;7.30;6.35;;;-0.10;56.80;;;;;;5095380;28;20031;-60
2022/03/17 02:01:44;;;;;;;7.45;6.50;;;-0.10;56.80;;;;;;5084111;28;20107;-60
2022/03/17 02:04:10;;;;;;;7.25;6.50;;;-0.10;57.10;;;;;;5098436;28;20027;-60
2022/03/17 02:06:37;;;;;;;7.25;6.18;;;-0.10;57.10;;;;;;5101286;28;20507;-60
2022/03/17 02:09:03;;;;;;;7.38;6.68;;;-0.10;57.20;;;;;;5095112;28;20120;-60
2022/03/17 02:14:14;;;;;;;7.78;6.32;;;-0.10;57.50;;;;;;5107810;28;20088;-60
2022/03/17 02:16:40;;;;;;;7.18;5.93;;;-0.20;57.50;;;;;;5108233;28;20052;-60
2022/03/17 02:19:06;;;;;;;6.13;5.53;;;-0.20;57.20;;;;;;5107523;28;21591;-60
2022/03/17 02:21:34;;;;;;;6.97;5.65;;;-0.20;56.60;;;;;;5109459;28;20122;-60
2022/03/17 02:26:45;;;;;;;5.97;5.22;;;-0.20;56.30;;;;;;5104818;28;20395;-60
2022/03/17 02:29:12;;;;;;;6.38;5.43;;;-0.20;55.90;;;;;;5092020;28;20016;-59
2022/03/17 02:31:38;;;;;;;6.05;5.45;;;-0.20;55.80;;;;;;5106909;28;20027;-60
2022/03/17 02:34:03;;;;;;;6.47;5.60;;;-0.20;55.80;;;;;;5100328;28;20027;-60
2022/03/17 02:36:29;;;;;;;6.20;5.57;;;-0.30;55.90;;;;;;5104908;28;20039;-60
2022/03/17 02:38:55;;;;;;;5.93;5.32;;;-0.30;56.00;;;;;;5092812;28;20036;-60
2022/03/17 02:41:23;;;;;;;6.50;5.55;;;-0.30;56.40;;;;;;5081746;28;20586;-60
2022/03/17 02:43:55;;;;;;;7.00;5.85;;;-0.30;56.70;;;;;;5089581;28;20533;-59
2022/03/17 02:46:21;;;;;;;5.95;5.30;;;-0.30;57.00;;;;;;5102048;28;20425;-60
2022/03/17 02:48:47;;;;;;;6.22;5.60;;;-0.40;56.60;;;;;;5098433;28;20072;-60
2022/03/17 02:51:12;;;;;;;5.97;5.38;;;-0.40;56.60;;;;;;5104610;28;20103;-60
2022/03/17 02:53:38;;;;;;;6.10;5.40;;;-0.40;56.60;;;;;;5090409;28;20263;-60
2022/03/17 02:56:04;;;;;;;5.22;3.95;;;-0.40;56.40;;;;;;5102065;28;20060;-59
2022/03/17 02:58:31;;;;;;;7.15;6.18;;;-0.50;56.70;;;;;;5103328;28;20036;-60
2022/03/17 03:00:57;;;;;;;6.15;5.55;;;-0.50;57.00;;;;;;5097145;28;20031;-60
2022/03/17 03:03:23;;;;;;;7.30;6.43;;;-0.50;57.20;;;;;;5097545;28;20034;-60
2022/03/17 03:05:49;;;;;;;6.68;5.97;;;-0.50;57.50;;;;;;5097683;28;20443;-60
2022/03/17 03:08:15;;;;;;;6.68;5.97;;;-0.50;57.60;;;;;;5085235;28;20436;-60
2022/03/17 03:10:42;;;;;;;7.13;5.88;;;-0.50;57.70;;;;;;5091060;28;20024;-60
2022/03/17 03:13:10;;;;;;;7.15;6.05;;;-0.50;57.80;;;;;;5092665;28;20035;-60
2022/03/17 03:15:36;;;;;;;7.85;5.10;;;-0.50;58.20;;;;;;5088883;28;20081;-60
2022/03/17 03:18:02;;;;;;;7.60;6.40;;;-0.70;58.00;;;;;;5102083;28;20442;-60
2022/03/17 03:20:28;;;;;;;7.35;6.53;;;-0.60;58.70;;;;;;5096191;28;20084;-59
2022/03/17 03:22:54;;;;;;;6.25;5.65;;;-0.60;58.70;;;;;;5097110;28;20107;-59
2022/03/17 03:25:19;;;;;;;6.40;4.40;;;-0.60;58.80;;;;;;5092428;28;20023;-60
2022/03/17 03:27:45;;;;;;;7.25;6.55;;;-0.70;58.70;;;;;;5094999;28;20077;-59
2022/03/17 03:30:13;;;;;;;9.13;6.55;;;-0.70;58.60;;;;;;5078153;28;20086;-60
2022/03/17 03:32:40;;;;;;;6.97;6.28;;;-0.70;58.40;;;;;;5097423;28;20063;-59
2022/03/17 03:37:51;;;;;;;6.30;5.68;;;-0.60;58.60;;;;;;5094867;28;20533;-60
2022/03/17 03:40:17;;;;;;;8.63;6.82;;;-0.70;58.70;;;;;;5089404;28;20047;-60
2022/03/17 03:42:43;;;;;;;7.43;6.47;;;-0.70;58.70;;;;;;5107992;28;20023;-60
2022/03/17 03:45:09;;;;;;;7.65;6.55;;;-0.70;58.60;;;;;;5106110;28;20035;-60
2022/03/17 03:47:35;;;;;;;7.30;6.00;;;-0.70;58.90;;;;;;5089602;28;20056;-60
2022/03/17 03:50:01;;;;;;;8.40;7.50;;;-0.80;58.80;;;;;;5107794;28;20101;-59
2022/03/17 03:52:27;;;;;;;7.38;6.38;;;-0.80;59.00;;;;;;5099781;28;20074;-59
2022/03/17 03:54:52;;;;;;;8.10;7.32;;;-0.80;59.50;;;;;;5106477;28;20093;-60
2022/03/17 03:57:18;;;;;;;7.47;6.38;;;-0.80;59.70;;;;;;5084482;28;20432;-60
2022/03/17 03:59:43;;;;;;;7.20;6.50;;;-0.90;59.50;;;;;;5094303;28;20032;-60
2022/03/17 04:02:10;;;;;;;7.40;6.60;;;-0.90;59.40;;;;;;5097025;28;20096;-60
2022/03/17 04:04:40;;;;;;;8.85;7.07;;;-0.90;59.70;;;;;;5100186;28;20019;-60
2022/03/17 04:07:10;;;;;;;7.03;6.32;;;-0.90;60.10;;;;;;5090145;28;20024;-60
2022/03/17 04:09:39;;;;;;;6.85;6.15;;;-0.90;60.30;;;;;;5087779;28;20130;-60
2022/03/17 04:12:10;;;;;;;7.10;6.40;;;-0.90;60.40;;;;;;5098071;28;20144;-59
2022/03/17 04:14:36;;;;;;;7.15;6.38;;;-0.90;60.10;;;;;;5101923;28;20020;-61
2022/03/17 04:17:02;;;;;;;6.82;6.10;;;-0.90;60.00;;;;;;5093867;28;20107;-59
2022/03/17 04:19:28;;;;;;;7.90;7.10;;;-0.90;60.10;;;;;;5094537;28;20035;-59
2022/03/17 04:21:54;;;;;;;7.25;6.53;;;-0.90;60.20;;;;;;5106808;28;20380;-59
2022/03/17 04:24:22;;;;;;;7.93;7.13;;;-0.90;60.10;;;;;;5094725;28;20028;-59
2022/03/17 04:26:48;;;;;;;8.75;6.60;;;-0.90;60.40;;;;;;5103563;28;20108;-59
2022/03/17 04:29:15;;;;;;;9.48;7.15;;;-0.90;60.30;;;;;;5103690;28;20028;-59
2022/03/17 04:31:43;;;;;;;7.53;6.43;;;-0.90;60.00;;;;;;5095818;28;20027;-59
2022/03/17 04:34:09;;;;;;;7.35;6.20;;;-0.80;60.30;;;;;;5100710;28;20024;-61
2022/03/17 04:36:36;;;;;;;7.25;6.55;;;-0.80;60.00;;;;;;5087526;28;20404;-59
2022/03/17 04:39:03;;;;;;;9.15;7.18;;;-0.80;60.00;;;;;;5095062;28;20445;-59
2022/03/17 04:41:29;;;;;;;8.02;7.22;;;-0.70;60.40;;;;;;5097635;28;20035;-59
2022/03/17 04:43:55;;;;;;;7.88;7.07;;;-0.70;60.40;;;;;;5090137;28;20032;-59
2022/03/17 04:46:21;;;;;;;8.80;7.93;;;-0.60;60.20;;;;;;5102090;28;20043;-59
2022/03/17 04:48:47;;;;;;;8.20;7.28;;;-0.60;60.10;;;;;;5115232;28;20375;-59
2022/03/17 04:51:13;;;;;;;8.07;7.20;;;-0.50;60.40;;;;;;5112874;28;20053;-60
2022/03/17 04:53:39;;;;;;;10.80;5.50;;;-0.50;60.00;;;;;;5089977;28;20025;-60
2022/03/17 04:56:16;;;;;;;7.75;6.88;;;-0.50;60.00;;;;;;5095496;28;20042;-59
2022/03/17 04:58:43;;;;;;;8.95;7.15;;;-0.50;60.20;;;;;;5103393;28;20063;-60
2022/03/17 05:01:10;;;;;;;8.07;7.28;;;-0.50;60.00;;;;;;5105496;28;20032;-60
2022/03/17 05:03:37;;;;;;;9.00;7.93;;;-0.40;59.80;;;;;;5104142;28;20032;-59
2022/03/17 05:06:03;;;;;;;8.52;7.18;;;-0.30;59.90;;;;;;5103794;28;20531;-59
2022/03/17 05:08:29;;;;;;;8.05;7.25;;;-0.30;59.60;;;;;;5099637;28;20052;-60
2022/03/17 05:10:55;;;;;;;8.63;7.72;;;-0.20;59.30;;;;;;5112743;28;20058;-60
2022/03/17 05:13:23;;;;;;;8.27;7.45;;;-0.10;59.30;;;;;;5097335;28;20036;-60
2022/03/17 05:15:51;;;;;;;9.65;7.40;;;0.00;59.70;;;;;;5091475;28;20077;-60
2022/03/17 05:18:18;;;;;;;7.85;7.00;;;0.10;59.80;;;;;;5087241;28;20047;-59
2022/03/17 05:20:43;;;;;;;7.93;7.07;;;0.20;59.70;;;;;;5096150;28;20078;-60
2022/03/17 05:23:11;;;;;;;9.45;6.88;;;0.30;59.30;;;;;;5104082;28;20024;-60
2022/03/17 05:25:40;;;;;;;8.25;7.45;;;0.40;58.70;;;;;;5084334;28;20118;-60
2022/03/17 05:28:10;;;;;;;9.73;8.30;;;0.60;58.70;;;;;;5099592;28;20019;-60
2022/03/17 05:30:37;;;;;;;8.27;7.10;;;0.70;58.60;;;;;;5102083;28;20028;-60
2022/03/17 05:33:04;;;;;;;8.35;7.15;;;0.90;58.30;;;;;;5083599;28;20028;-60
2022/03/17 05:35:30;;;;;;;7.60;6.50;;;1.10;57.90;;;;;;5078217;28;20056;-60
2022/03/17 05:37:56;;;;;;;8.40;7.07;;;1.30;57.80;;;;;;5089560;28;20051;-60
2022/03/17 05:40:23;;;;;;;7.82;7.03;;;1.50;56.80;;;;;;5094829;28;20032;-60
2022/03/17 05:42:53;;;;;;;8.15;6.95;;;1.70;56.50;;;;;;5099984;28;20031;-60
2022/03/17 05:45:21;;;;;;;8.77;7.60;;;1.90;55.70;;;;;;5095227;28;20012;-60
2022/03/17 05:47:51;;;;;;;8.85;6.93;;;2.10;55.70;;;;;;5101458;28;20043;-60
2022/03/17 05:50:20;;;;;;;9.68;5.28;;;2.30;55.10;;;;;;5105911;28;20032;-60
2022/03/17 05:52:47;;;;;;;9.30;6.82;;;2.30;54.60;;;;;;5092694;28;20068;-59
2022/03/17 05:55:15;;;;;;;9.02;7.32;;;2.30;54.30;;;;;;5092067;28;20052;-59
2022/03/17 05:57:43;;;;;;;7.57;6.78;;;2.40;54.00;;;;;;5075553;28;20432;-60
2022/03/17 06:00:13;;;;;;;6.50;5.03;;;2.50;53.70;;;;;;5080081;28;20094;-60
2022/03/17 06:02:39;;;;;;;6.80;6.03;;;2.60;53.70;;;;;;5108965;27;20115;-60
2022/03/17 06:05:06;;;;;;;8.32;6.07;;;2.80;53.70;;;;;;5083909;28;20107;-60
2022/03/17 06:07:52;;;;;;;7.38;6.18;;;3.10;52.80;;;;;;5077753;28;20020;-59
2022/03/17 06:10:24;;;;;;;8.85;6.45;;;3.50;52.00;;;;;;5093019;28;20028;-59
2022/03/17 06:12:54;;;;;;;7.45;6.03;;;4.00;51.70;;;;;;5086608;28;20066;-60
2022/03/17 06:15:21;;;;;;;6.80;4.75;;;4.60;51.30;;;;;;5086470;28;20024;-60
2022/03/17 06:18:03;;;;;;;6.07;5.45;;;5.10;51.60;;;;;;5087544;28;20024;-59
2022/03/17 06:20:31;;;;;;;6.18;5.57;;;5.60;50.00;;;;;;5084341;28;23068;-60
2022/03/17 06:22:59;;;;;;;7.25;4.80;;;6.00;49.60;;;;;;5078783;28;20040;-61
2022/03/17 06:25:27;;;;;;;6.53;5.32;;;6.10;48.30;;;;;;5091571;28;20027;-61
2022/03/17 06:27:54;;;;;;;7.85;4.65;;;6.10;48.20;;;;;;5087899;28;20441;-61
2022/03/17 06:30:22;;;;;;;6.05;4.82;;;6.10;47.30;;;;;;5088576;28;20028;-63
2022/03/17 06:32:50;;;;;;;8.45;5.97;;;5.90;46.50;;;;;;5085307;28;20043;-61
2022/03/17 06:35:19;;;;;;;6.13;4.55;;;5.50;46.50;;;;;;5085341;28;20028;-62
2022/03/17 06:37:46;;;;;;;6.25;4.72;;;5.00;47.00;;;;;;5082269;28;20048;-63
2022/03/17 06:40:13;;;;;;;7.22;4.40;;;4.60;47.60;;;;;;5080512;28;20070;-63
2022/03/17 06:42:39;;;;;;;6.28;3.97;;;4.10;48.00;;;;;;5079280;28;20131;-65
2022/03/17 06:45:05;;;;;;;5.88;5.00;;;3.60;48.70;;;;;;5081973;28;20104;-63
2022/03/17 06:47:31;;;;;;;6.50;5.82;;;3.40;49.30;;;;;;5081316;28;20024;-62
2022/03/17 06:49:57;;;;;;;5.10;4.60;;;3.20;49.20;;;;;;5085989;28;20372;-63
2022/03/17 06:52:22;;;;;;;7.22;5.43;;;2.90;49.10;;;;;;5073953;28;20414;-61
2022/03/17 06:54:49;;;;;;;4.72;4.32;;;2.80;48.80;;;;;;5083774;28;20042;-61
2022/03/17 06:57:21;;;;;;;5.45;4.88;;;2.60;48.70;;;;;;5081153;28;20062;-61
2022/03/17 06:59:48;;;;;;;5.95;5.30;;;2.50;48.90;;;;;;5079626;28;20031;-63
2022/03/17 07:02:14;;;;;;;5.80;5.00;;;2.30;49.40;;;;;;5074575;28;20062;-67
2022/03/17 07:04:41;;;;;;;6.15;5.38;;;2.20;48.90;;;;;;5072880;28;20425;-63
2022/03/17 07:07:06;;;;;;;6.40;4.90;;;2.10;49.10;;;;;;5080829;28;20034;-64
2022/03/17 07:09:32;;;;;;;5.78;4.97;;;2.10;49.50;;;;;;5066385;28;20035;-65
2022/03/17 07:11:58;;;;;;;6.78;5.43;;;2.10;49.70;;;;;;5077336;28;20031;-64
2022/03/17 07:14:24;;;;;;;5.90;4.80;;;2.00;49.70;;;;;;5076225;28;20079;-65
2022/03/17 07:16:49;;;;;;;7.53;6.13;;;2.00;49.30;;;;;;5080305;28;20488;-65
2022/03/17 07:19:16;;;;;;;5.60;5.00;;;1.90;48.90;;;;;;5076514;28;20028;-65
2022/03/17 07:21:41;;;;;;;6.07;5.20;;;1.80;48.80;;;;;;5071229;28;20036;-64
2022/03/17 07:24:09;;;;;;;5.78;5.28;;;1.70;49.10;;;;;;5070864;28;20020;-64
2022/03/17 07:26:35;;;;;;;5.32;4.78;;;1.60;49.20;;;;;;5075773;28;20115;-62
2022/03/17 07:29:02;;;;;;;6.97;5.22;;;1.60;49.50;;;;;;5081067;28;20076;-64
2022/03/17 07:31:29;;;;;;;6.13;4.90;;;1.60;49.30;;;;;;5077328;28;20024;-63
2022/03/17 07:33:54;;;;;;;5.60;5.00;;;1.60;49.20;;;;;;5076691;28;20412;-63
2022/03/17 07:36:21;;;;;;;5.63;5.05;;;1.60;49.20;;;;;;5080918;28;20052;-64
2022/03/17 07:38:47;;;;;;;6.63;5.88;;;1.60;49.40;;;;;;5077925;28;20034;-64
2022/03/17 07:41:14;;;;;;;5.85;5.20;;;1.60;49.60;;;;;;5080985;28;20033;-63
2022/03/17 07:43:41;;;;;;;7.38;5.30;;;1.50;49.50;;;;;;5080345;28;20418;-64
2022/03/17 07:46:07;;;;;;;5.68;5.07;;;1.50;49.20;;;;;;5080879;28;20510;-62
2022/03/17 07:48:33;;;;;;;5.65;4.72;;;1.50;49.10;;;;;;5082308;28;20099;-65
2022/03/17 07:50:59;;;;;;;5.18;4.47;;;1.40;48.90;;;;;;5079165;28;20123;-66
2022/03/17 07:53:24;;;;;;;5.38;4.70;;;1.40;49.20;;;;;;5078540;28;20034;-66
2022/03/17 07:55:54;;;;;;;5.55;4.72;;;1.40;48.60;;;;;;5083484;28;20033;-64
2022/03/17 07:58:26;;;;;;;5.38;4.85;;;1.40;48.60;;;;;;5076582;28;20024;-65
2022/03/17 08:00:53;;;;;;;5.82;5.00;;;1.40;48.80;;;;;;5077920;28;20168;-66
2022/03/17 08:03:20;;;;;;;5.57;4.70;;;1.40;48.70;;;;;;5079301;28;20024;-64
2022/03/17 08:05:46;;;;;;;8.35;5.47;;;1.40;48.70;;;;;;5077678;28;20112;-64
2022/03/17 08:08:13;;;;;;;6.85;5.18;;;1.40;49.20;;;;;;5074247;28;20036;-65
2022/03/17 08:10:39;;;;;;;5.75;4.88;;;1.40;49.30;;;;;;5074413;28;20568;-66
2022/03/17 08:13:06;;;;;;;5.63;4.68;;;1.40;49.50;;;;;;5079327;28;20058;-65
2022/03/17 08:15:32;;;;;;;5.78;5.05;;;1.40;49.20;;;;;;5073507;28;20989;-64
2022/03/17 08:17:57;;;;;;;6.32;4.63;;;1.40;48.70;;;;;;5072103;28;20157;-65
2022/03/17 08:20:23;;;;;;;5.80;4.63;;;1.40;49.00;;;;;;5078014;28;20043;-64
2022/03/17 08:22:50;;;;;;;6.30;5.13;;;1.40;49.00;;;;;;5075231;28;20035;-64
2022/03/17 08:25:17;;;;;;;5.15;4.43;;;1.40;49.40;;;;;;5080517;28;20032;-64
2022/03/17 08:27:42;;;;;;;5.18;4.68;;;1.40;49.10;;;;;;5075456;28;20492;-64
2022/03/17 08:30:09;;;;;;;5.72;4.78;;;1.40;48.80;;;;;;5078095;28;20020;-64
2022/03/17 08:32:36;;;;;;;6.07;4.93;;;1.40;49.40;;;;;;5080909;28;20046;-63
2022/03/17 08:35:01;;;;;;;5.72;4.70;;;1.40;49.40;;;;;;5108969;27;20040;-64
2022/03/17 08:37:27;;;;;;;6.15;5.05;;;1.40;49.30;;;;;;5072952;28;20072;-63
2022/03/17 08:39:52;;;;;;;6.28;4.97;;;1.30;49.50;;;;;;5072345;28;20034;-64
2022/03/17 08:42:18;;;;;;;6.38;4.65;;;1.30;49.60;;;;;;5077349;28;20078;-64
2022/03/17 08:44:44;;;;;;;6.97;5.22;;;1.30;49.70;;;;;;5076075;28;21020;-63
2022/03/17 08:49:54;;;;;;;6.00;4.95;;;1.30;49.50;;;;;;5072665;28;20098;-64
2022/03/17 08:52:19;;;;;;;5.38;4.78;;;1.30;49.50;;;;;;5074910;28;20028;-63
2022/03/17 08:54:46;;;;;;;6.72;4.85;;;1.30;49.00;;;;;;5074643;28;20024;-63
2022/03/17 08:57:12;;;;;;;6.30;5.20;;;1.40;49.30;;;;;;5079503;28;20381;-63
2022/03/17 08:59:38;;;;;;;5.32;4.80;;;1.40;49.20;;;;;;5083873;28;20029;-63
2022/03/17 09:02:11;;;;;;;6.30;4.60;;;1.40;49.20;;;;;;5079533;28;20055;-63
2022/03/17 09:04:37;;;;;;;5.50;4.32;;;1.50;49.10;;;;;;5085721;28;20051;-63
2022/03/17 09:07:04;;;;;;;5.80;4.50;;;1.50;49.00;;;;;;5081912;28;20092;-63
2022/03/17 09:09:32;;;;;;;5.85;4.32;;;1.40;49.00;;;;;;5079011;28;20050;-62
2022/03/17 09:11:58;;;;;;;6.22;4.25;;;1.50;48.90;;;;;;5077959;28;20031;-62
2022/03/17 09:14:25;;;;;;;5.13;4.55;;;1.50;49.20;;;;;;5086732;28;20387;-61
2022/03/17 09:16:51;;;;;;;5.40;4.45;;;1.50;49.20;;;;;;5073918;28;20132;-63
2022/03/17 09:19:20;;;;;;;6.70;5.13;;;1.60;48.80;;;;;;5073665;28;20743;-62
2022/03/17 09:21:46;;;;;;;6.18;4.82;;;1.60;49.30;;;;;;5063725;28;20040;-63
2022/03/17 09:24:12;;;;;;;5.47;4.20;;;1.70;49.10;;;;;;5076347;28;20021;-63
2022/03/17 09:26:38;;;;;;;4.63;4.13;;;1.70;48.60;;;;;;5079801;28;20028;-65
2022/03/17 09:29:04;;;;;;;5.32;4.30;;;1.60;48.80;;;;;;5079329;28;20035;-63
2022/03/17 09:31:30;;;;;;;5.07;4.03;;;1.60;49.30;;;;;;5072313;28;20039;-65
2022/03/17 09:33:56;;;;;;;9.45;5.40;;;1.70;49.50;;;;;;5071856;28;20051;-65
2022/03/17 09:36:22;;;;;;;5.35;4.50;;;1.70;49.20;;;;;;5077961;28;20051;-64
2022/03/17 09:41:35;;;;;;;4.90;4.40;;;1.80;48.70;;;;;;5069985;28;20067;-64
2022/03/17 09:44:02;;;;;;;5.20;4.50;;;1.80;49.00;;;;;;5071480;28;20165;-62
2022/03/17 09:46:29;;;;;;;5.35;4.15;;;1.90;49.20;;;;;;5073789;28;20026;-61
2022/03/17 09:48:56;;;;;;;4.65;3.95;;;1.90;49.30;;;;;;5081799;28;20081;-61
2022/03/17 09:51:27;;;;;;;5.63;4.07;;;2.00;49.10;;;;;;5077321;28;20071;-64
2022/03/17 09:53:54;;;;;;;5.22;4.10;;;1.90;48.60;;;;;;5073369;28;20028;-64
2022/03/17 09:56:24;;;;;;;5.07;4.10;;;1.90;48.60;;;;;;5077476;28;20147;-64
2022/03/17 09:58:54;;;;;;;5.30;4.60;;;1.90;49.10;;;;;;5072981;28;20024;-64
2022/03/17 10:01:21;;;;;;;6.63;4.60;;;2.00;49.10;;;;;;5070420;28;20032;-62
2022/03/17 10:03:48;;;;;;;5.47;4.55;;;2.00;49.20;;;;;;5072893;28;20119;-62
2022/03/17 10:06:15;;;;;;;4.50;4.05;;;1.90;49.00;;;;;;5074737;28;20043;-62
2022/03/17 10:08:45;;;;;;;6.93;4.47;;;2.00;49.00;;;;;;5076765;28;20605;-62
2022/03/17 10:11:32;;;;;;;5.50;3.97;;;2.00;49.00;;;;;;5076743;28;20154;-62
2022/03/17 10:13:59;;;;;;;5.22;4.03;;;2.10;49.00;;;;;;5079080;28;20470;-62
2022/03/17 10:16:27;;;;;;;5.47;4.40;;;2.10;49.60;;;;;;5073277;28;20036;-62
2022/03/17 10:19:01;;;;;;;4.97;4.35;;;2.10;49.40;;;;;;5073570;28;20028;-62
2022/03/17 10:21:28;;;;;;;5.38;3.92;;;2.20;49.70;;;;;;5074445;28;20036;-62
2022/03/17 10:23:59;;;;;;;5.40;3.35;;;2.20;49.40;;;;;;5070721;28;20032;-62
2022/03/17 10:26:50;;;;;;;5.05;3.88;;;2.20;49.30;;;;;;5074478;28;20077;-62
2022/03/17 10:29:17;;;;;;;4.72;4.25;;;2.20;49.70;;;;;;5069853;28;20032;-62
2022/03/17 10:31:56;;;;;;;5.50;4.20;;;2.20;49.30;;;;;;5067335;28;20159;-62
2022/03/17 10:34:26;;;;;;;5.00;4.47;;;2.20;48.90;;;;;;5067977;28;20040;-64
2022/03/17 10:37:07;;;;;;;5.65;3.97;;;2.30;49.50;;;;;;5064802;28;20056;-63
2022/03/17 10:39:37;;;;;;;5.75;4.13;;;2.30;49.50;;;;;;5071267;28;20035;-61
2022/03/17 10:42:14;;;;;;;3.83;3.13;;;2.30;49.60;;;;;;5077349;28;20430;-62
2022/03/17 10:44:41;;;;;;;5.32;4.20;;;2.30;49.60;;;;;;5077441;28;20349;-62
2022/03/17 10:47:08;;;;;;;14.10;4.82;;;2.30;49.70;;;;;;5073257;28;20495;-62
2022/03/17 10:49:34;;;;;;;6.00;4.25;;;2.40;49.30;;;;;;5076976;28;20023;-61
2022/03/17 10:51:59;;;;;;;4.63;4.07;;;2.40;49.70;;;;;;5072779;28;20044;-61
2022/03/17 10:54:25;;;;;;;4.68;4.18;;;2.40;49.90;;;;;;5074877;28;20075;-62
2022/03/17 10:57:09;;;;;;;5.68;4.43;;;2.50;49.80;;;;;;5081529;28;20123;-61
2022/03/17 10:59:43;;;;;;;6.32;4.20;;;2.50;49.30;;;;;;5072788;28;21298;-62
2022/03/17 11:02:24;;;;;;;5.40;4.55;;;2.50;49.60;;;;;;5076253;28;20042;-62
2022/03/17 11:04:51;;;;;;;6.45;3.83;;;2.50;50.00;;;;;;5082792;28;20118;-65
2022/03/17 11:07:18;;;;;;;5.53;4.25;;;2.50;50.00;;;;;;5076067;28;20048;-64
2022/03/17 11:09:46;;;;;;;5.20;4.50;;;2.60;50.00;;;;;;5071221;28;20930;-64
2022/03/17 11:12:17;;;;;;;5.22;4.35;;;2.60;49.60;;;;;;5073063;28;20055;-65
2022/03/17 11:14:45;;;;;;;4.03;3.30;;;2.70;49.70;;;;;;5073658;28;20113;-62
2022/03/17 11:17:23;;;;;;;4.45;4.00;;;2.60;49.40;;;;;;5071349;28;20439;-64
2022/03/17 11:19:49;;;;;;;4.90;4.25;;;2.60;49.40;;;;;;5082541;28;20035;-64
2022/03/17 11:22:20;;;;;;;5.22;4.38;;;2.60;49.30;;;;;;5075943;28;20105;-65
2022/03/17 11:24:46;;;;;;;4.90;4.10;;;2.70;50.00;;;;;;5073542;28;20024;-64
2022/03/17 11:27:13;;;;;;;5.70;4.15;;;2.70;49.90;;;;;;5075045;28;20047;-65
2022/03/17 11:29:48;;;;;;;4.78;4.13;;;2.80;50.20;;;;;;5081078;28;20976;-62
2022/03/17 11:32:31;;;;;;;4.50;3.95;;;2.80;50.00;;;;;;5071782;28;20600;-60
2022/03/17 11:35:07;;;;;;;5.13;4.40;;;2.80;49.60;;;;;;5073440;28;20031;-61
2022/03/17 11:37:33;;;;;;;4.30;3.90;;;2.80;49.30;;;;;;5072482;28;20105;-62
2022/03/17 11:39:59;;;;;;;5.32;4.47;;;2.90;49.60;;;;;;5072233;28;20115;-61
2022/03/17 11:42:47;;;;;;;5.35;4.32;;;2.90;49.80;;;;;;5069690;28;20048;-60
2022/03/17 11:45:13;;;;;;;5.15;4.28;;;2.90;50.00;;;;;;5072377;28;20150;-63
2022/03/17 11:47:44;;;;;;;5.00;4.50;;;2.90;50.00;;;;;;5067556;28;20136;-61
2022/03/17 11:50:25;;;;;;;;;;;2.90;49.70;;;;;;5072196;28;20492;-61
2022/03/17 11:53:04;;;;;;;4.57;4.10;;;2.90;49.90;;;;;;5066894;28;19923;-62
2022/03/17 11:55:33;;;;;;;5.20;4.35;;;2.90;51.00;;;;;;5066542;28;20020;-62
2022/03/17 11:58:18;;;;;;;7.30;4.93;;;3.00;50.60;;;;;;5069814;28;20562;-60
2022/03/17 12:00:46;;;;;;;3.83;3.15;;;3.10;50.40;;;;;;5073637;28;20036;-62
2022/03/17 12:03:12;;;;;;;6.97;4.60;;;3.00;50.10;;;;;;5066972;28;20395;-60
2022/03/17 12:05:43;;;;;;;6.10;4.35;;;3.00;50.10;;;;;;5072197;28;20020;-62
2022/03/17 12:08:16;;;;;;;5.05;3.67;;;3.10;49.80;;;;;;5071150;28;20032;-61
2022/03/17 12:11:06;;;;;;;5.55;5.03;;;3.00;49.70;;;;;;5071224;28;20086;-63
2022/03/17 12:13:34;;;;;;;5.28;4.78;;;3.00;50.10;;;;;;5073960;28;20036;-63
2022/03/17 12:16:01;;;;;;;4.85;4.35;;;3.10;50.50;;;;;;5071120;28;20079;-60
2022/03/17 12:18:28;;;;;;;5.53;3.70;;;3.20;50.60;;;;;;5072363;28;20029;-59
2022/03/17 12:20:54;;;;;;;7.93;4.60;;;3.10;50.50;;;;;;5073181;28;20078;-60
2022/03/17 12:23:46;;;;;;;5.85;3.83;;;3.20;50.80;;;;;;5069834;28;20041;-61
2022/03/17 12:26:11;;;;;;;5.40;4.90;;;3.20;50.80;;;;;;5068969;28;20033;-60
2022/03/17 12:28:45;;;;;;;7.32;3.88;;;3.20;50.90;;;;;;5069180;28;20728;-61
2022/03/17 12:31:11;;;;;;;5.20;4.70;;;3.20;50.70;;;;;;5074631;28;20032;-61
2022/03/17 12:33:38;;;;;;;5.22;4.43;;;3.20;50.90;;;;;;5077479;28;20037;-61
2022/03/17 12:36:06;;;;;;;5.47;4.95;;;3.30;51.00;;;;;;5077027;28;20033;-61
2022/03/17 12:38:33;;;;;;;6.65;5.13;;;3.40;50.60;;;;;;5079830;28;20040;-61
2022/03/17 12:41:00;;;;;;;7.53;5.13;;;3.50;50.60;;;;;;5076421;28;20028;-61
2022/03/17 12:43:26;;;;;;;5.60;5.00;;;3.60;50.20;;;;;;5071706;28;20020;-61
2022/03/17 12:45:52;;;;;;;5.50;4.63;;;3.60;50.00;;;;;;5078601;28;20099;-61
2022/03/17 12:48:19;;;;;;;5.18;4.65;;;3.60;50.10;;;;;;5075879;28;20024;-61
2022/03/17 12:50:45;;;;;;;5.80;5.15;;;3.60;49.80;;;;;;5072090;28;20094;-61
2022/03/17 12:53:11;;;;;;;5.35;4.80;;;3.60;49.80;;;;;;5074639;28;20032;-61
2022/03/17 12:55:37;;;;;;;5.43;4.63;;;3.60;49.80;;;;;;5072194;28;20057;-61
2022/03/17 12:58:04;;;;;;;4.80;3.60;;;3.60;50.20;;;;;;5075189;28;20024;-60
2022/03/17 13:00:32;;;;;;;4.82;4.32;;;3.60;50.50;;;;;;5077042;28;20039;-61
2022/03/17 13:02:59;;;;;;;5.63;4.70;;;3.50;50.60;;;;;;5080289;28;20078;-61
2022/03/17 13:08:14;;;;;;;6.32;5.03;;;3.60;49.50;;;;;;5072424;28;20051;-60
2022/03/17 13:16:11;;;;;;;5.07;4.57;;;3.50;49.70;;;;;;5084106;28;20088;-60
2022/03/17 13:18:51;;;;;;;5.80;5.03;;;3.50;49.50;;;;;;5081316;28;20090;-60
2022/03/17 13:21:19;;;;;;;6.43;4.80;;;3.50;49.90;;;;;;5089014;28;20051;-60
2022/03/17 13:23:45;;;;;;;6.25;4.05;;;3.50;50.10;;;;;;5080284;28;20024;-60